Belmont Heights, Utah
Current Conditions -  °F | °C
As of 6:55 AM on Wednesday 28 Jan 2015 (Local Time) from K36U Reporting Station
Overcast Overcast  
Wind Chill: 31°   Ceiling: 6500
Heat Index: 36°   Visibility: 10mi
Dew Point: 32°   Wind: 6mph
Humidity: 87%   Direction: 60°ENE
Pressure: 30.23"   Gusts: NA
Location:  40.5907°N, 111.707°W
Report Text: K36U 281355Z AUTO 06005KT 10SM SCT048 OVC065 02/00 A3023 RMK AO2
Loading
Personal Weather Stations






























Interactive Weather Map New forecast layout! Learn more

10-Day Weather Forecast

Advertisements
Track Severe Weather on mobile